Vail, Washington
Current Conditions -  °F | °C
As of 8:54 PM on Saturday 25 Oct 2014 (Local Time) from KOLM Reporting Station
Overcast Overcast  
Wind Chill: 52°   Ceiling: 3300
Heat Index: 52°   Visibility: 10mi
Dew Point: 48°   Wind: 13mph
Humidity: 86%   Direction: 210°SSW
Pressure: 29.66"   Gusts: 26mph
Location:  46.8214°N, 122.662°W
Report Text: KOLM 260354Z AUTO 21011G23KT 10SM FEW025 BKN033 OVC043 11/09 A2966 RMK AO2 RAE37 PRESRR SLP043 P0004 T01110089
Loading
Personal Weather Stations






























Interactive Weather Map New forecast layout! Learn more

10-Day Weather Forecast

Advertisements
Track Severe Weather on mobile